sensor_id;sensor_type;location;lat;lon;timestamp;P1;durP1;ratioP1;P2;durP2;ratioP2
31798;SDS011;18374;51.136;3.502;2023-02-28T00:01:37;10.02;;;5.18;;
31798;SDS011;18374;51.136;3.502;2023-02-28T00:04:04;8.55;;;5.00;;
31798;SDS011;18374;51.136;3.502;2023-02-28T00:06:32;6.45;;;4.90;;
31798;SDS011;18374;51.136;3.502;2023-02-28T00:09:00;6.45;;;4.47;;
31798;SDS011;18374;51.136;3.502;2023-02-28T00:11:28;12.57;;;5.38;;
31798;SDS011;18374;51.136;3.502;2023-02-28T00:13:56;7.55;;;4.85;;
31798;SDS011;18374;51.136;3.502;2023-02-28T00:16:23;8.70;;;5.10;;
31798;SDS011;18374;51.136;3.502;2023-02-28T00:18:51;8.40;;;5.40;;
31798;SDS011;18374;51.136;3.502;2023-02-28T00:21:19;7.80;;;4.95;;
31798;SDS011;18374;51.136;3.502;2023-02-28T00:23:47;8.45;;;4.95;;
31798;SDS011;18374;51.136;3.502;2023-02-28T00:26:15;8.70;;;5.10;;
31798;SDS011;18374;51.136;3.502;2023-02-28T00:28:44;7.40;;;5.30;;
31798;SDS011;18374;51.136;3.502;2023-02-28T00:31:12;6.25;;;4.72;;
31798;SDS011;18374;51.136;3.502;2023-02-28T00:33:40;8.68;;;5.13;;
31798;SDS011;18374;51.136;3.502;2023-02-28T00:36:09;7.25;;;5.07;;
31798;SDS011;18374;51.136;3.502;2023-02-28T00:38:39;7.32;;;5.50;;
31798;SDS011;18374;51.136;3.502;2023-02-28T00:41:08;11.60;;;5.78;;
31798;SDS011;18374;51.136;3.502;2023-02-28T00:43:37;9.00;;;5.68;;
31798;SDS011;18374;51.136;3.502;2023-02-28T00:46:06;8.95;;;5.55;;
31798;SDS011;18374;51.136;3.502;2023-02-28T00:48:34;8.80;;;5.47;;
31798;SDS011;18374;51.136;3.502;2023-02-28T00:51:03;9.77;;;5.45;;
31798;SDS011;18374;51.136;3.502;2023-02-28T00:53:31;9.07;;;5.07;;
31798;SDS011;18374;51.136;3.502;2023-02-28T00:55:59;7.45;;;4.72;;
31798;SDS011;18374;51.136;3.502;2023-02-28T00:58:28;9.07;;;5.30;;
31798;SDS011;18374;51.136;3.502;2023-02-28T01:00:56;7.07;;;5.03;;
31798;SDS011;18374;51.136;3.502;2023-02-28T01:03:24;8.52;;;5.57;;
31798;SDS011;18374;51.136;3.502;2023-02-28T01:05:52;9.85;;;5.47;;
31798;SDS011;18374;51.136;3.502;2023-02-28T01:08:20;9.50;;;5.65;;
31798;SDS011;18374;51.136;3.502;2023-02-28T01:10:49;10.30;;;5.38;;
31798;SDS011;18374;51.136;3.502;2023-02-28T01:13:18;8.77;;;5.43;;
31798;SDS011;18374;51.136;3.502;2023-02-28T01:15:49;10.02;;;5.90;;
31798;SDS011;18374;51.136;3.502;2023-02-28T01:18:20;9.48;;;5.78;;
31798;SDS011;18374;51.136;3.502;2023-02-28T01:20:49;9.18;;;5.63;;
31798;SDS011;18374;51.136;3.502;2023-02-28T01:23:19;7.03;;;4.85;;
31798;SDS011;18374;51.136;3.502;2023-02-28T01:25:50;10.27;;;5.45;;
31798;SDS011;18374;51.136;3.502;2023-02-28T01:28:19;10.95;;;5.60;;
31798;SDS011;18374;51.136;3.502;2023-02-28T01:30:47;7.78;;;5.15;;
31798;SDS011;18374;51.136;3.502;2023-02-28T01:33:18;9.15;;;5.00;;
31798;SDS011;18374;51.136;3.502;2023-02-28T01:35:46;8.15;;;4.90;;
31798;SDS011;18374;51.136;3.502;2023-02-28T01:38:14;7.75;;;5.35;;
31798;SDS011;18374;51.136;3.502;2023-02-28T01:40:49;8.25;;;5.00;;
31798;SDS011;18374;51.136;3.502;2023-02-28T01:45:52;8.00;;;5.10;;
31798;SDS011;18374;51.136;3.502;2023-02-28T01:48:23;8.20;;;5.40;;
31798;SDS011;18374;51.136;3.502;2023-02-28T01:50:55;9.40;;;5.10;;
31798;SDS011;18374;51.136;3.502;2023-02-28T01:53:35;10.38;;;4.93;;
31798;SDS011;18374;51.136;3.502;2023-02-28T01:56:16;8.05;;;5.13;;
31798;SDS011;18374;51.136;3.502;2023-02-28T01:58:52;10.88;;;5.38;;
31798;SDS011;18374;51.136;3.502;2023-02-28T02:01:22;12.32;;;5.68;;
31798;SDS011;18374;51.136;3.502;2023-02-28T02:03:54;7.32;;;5.15;;
31798;SDS011;18374;51.136;3.502;2023-02-28T02:06:36;8.50;;;5.35;;
31798;SDS011;18374;51.136;3.502;2023-02-28T02:09:10;11.82;;;5.57;;
31798;SDS011;18374;51.136;3.502;2023-02-28T02:11:42;10.48;;;5.72;;
31798;SDS011;18374;51.136;3.502;2023-02-28T02:31:28;7.87;;;5.67;;
31798;SDS011;18374;51.136;3.502;2023-02-28T02:40:15;8.65;;;5.55;;
31798;SDS011;18374;51.136;3.502;2023-02-28T02:48:05;11.18;;;5.55;;
31798;SDS011;18374;51.136;3.502;2023-02-28T02:50:42;8.65;;;4.88;;
31798;SDS011;18374;51.136;3.502;2023-02-28T02:53:15;9.38;;;5.43;;
31798;SDS011;18374;51.136;3.502;2023-02-28T02:55:52;10.95;;;5.20;;
31798;SDS011;18374;51.136;3.502;2023-02-28T02:58:24;12.27;;;5.88;;
31798;SDS011;18374;51.136;3.502;2023-02-28T03:00:58;11.95;;;5.95;;
31798;SDS011;18374;51.136;3.502;2023-02-28T03:03:30;9.80;;;5.40;;
31798;SDS011;18374;51.136;3.502;2023-02-28T03:06:00;8.27;;;5.38;;
31798;SDS011;18374;51.136;3.502;2023-02-28T03:08:35;9.05;;;5.53;;
31798;SDS011;18374;51.136;3.502;2023-02-28T03:11:06;9.52;;;5.60;;
31798;SDS011;18374;51.136;3.502;2023-02-28T03:20:34;11.57;;;5.22;;
31798;SDS011;18374;51.136;3.502;2023-02-28T03:23:21;9.48;;;5.63;;
31798;SDS011;18374;51.136;3.502;2023-02-28T03:26:20;10.45;;;5.93;;
31798;SDS011;18374;51.136;3.502;2023-02-28T03:31:48;9.18;;;5.82;;
31798;SDS011;18374;51.136;3.502;2023-02-28T03:37:07;9.35;;;5.68;;
31798;SDS011;18374;51.136;3.502;2023-02-28T03:39:40;11.18;;;5.45;;
31798;SDS011;18374;51.136;3.502;2023-02-28T03:42:20;11.10;;;5.60;;
31798;SDS011;18374;51.136;3.502;2023-02-28T03:44:57;9.75;;;5.53;;
31798;SDS011;18374;51.136;3.502;2023-02-28T03:47:52;12.32;;;5.78;;
31798;SDS011;18374;51.136;3.502;2023-02-28T03:50:47;11.37;;;5.60;;
31798;SDS011;18374;51.136;3.502;2023-02-28T03:53:30;15.50;;;5.97;;
31798;SDS011;18374;51.136;3.502;2023-02-28T03:56:13;9.43;;;5.97;;
31798;SDS011;18374;51.136;3.502;2023-02-28T03:59:02;10.60;;;6.57;;
31798;SDS011;18374;51.136;3.502;2023-02-28T04:01:54;12.00;;;6.88;;
31798;SDS011;18374;51.136;3.502;2023-02-28T04:04:25;9.93;;;6.10;;
31798;SDS011;18374;51.136;3.502;2023-02-28T04:06:53;10.40;;;6.47;;
31798;SDS011;18374;51.136;3.502;2023-02-28T04:09:33;11.55;;;6.50;;
31798;SDS011;18374;51.136;3.502;2023-02-28T04:12:01;17.08;;;7.13;;
31798;SDS011;18374;51.136;3.502;2023-02-28T04:14:29;16.02;;;6.50;;
31798;SDS011;18374;51.136;3.502;2023-02-28T04:16:57;11.55;;;6.72;;
31798;SDS011;18374;51.136;3.502;2023-02-28T04:19:25;9.13;;;5.78;;
31798;SDS011;18374;51.136;3.502;2023-02-28T04:21:53;12.75;;;6.80;;
31798;SDS011;18374;51.136;3.502;2023-02-28T04:24:22;10.65;;;6.22;;
31798;SDS011;18374;51.136;3.502;2023-02-28T04:26:53;9.82;;;6.40;;
31798;SDS011;18374;51.136;3.502;2023-02-28T04:29:29;13.68;;;6.53;;
31798;SDS011;18374;51.136;3.502;2023-02-28T04:31:59;12.50;;;6.20;;
31798;SDS011;18374;51.136;3.502;2023-02-28T04:34:29;11.40;;;6.47;;
31798;SDS011;18374;51.136;3.502;2023-02-28T04:36:58;12.48;;;6.57;;
31798;SDS011;18374;51.136;3.502;2023-02-28T04:39:43;10.18;;;6.50;;
31798;SDS011;18374;51.136;3.502;2023-02-28T04:42:11;11.13;;;6.72;;
31798;SDS011;18374;51.136;3.502;2023-02-28T04:44:39;14.50;;;6.35;;
31798;SDS011;18374;51.136;3.502;2023-02-28T04:47:07;12.05;;;6.63;;
31798;SDS011;18374;51.136;3.502;2023-02-28T04:49:34;10.90;;;6.45;;
31798;SDS011;18374;51.136;3.502;2023-02-28T04:52:02;12.50;;;6.85;;
31798;SDS011;18374;51.136;3.502;2023-02-28T04:54:31;14.20;;;6.40;;
31798;SDS011;18374;51.136;3.502;2023-02-28T04:56:58;10.52;;;6.38;;
31798;SDS011;18374;51.136;3.502;2023-02-28T04:59:26;15.63;;;6.63;;
31798;SDS011;18374;51.136;3.502;2023-02-28T05:01:54;12.13;;;6.18;;
31798;SDS011;18374;51.136;3.502;2023-02-28T05:04:22;12.65;;;6.45;;
31798;SDS011;18374;51.136;3.502;2023-02-28T05:06:49;13.55;;;7.03;;
31798;SDS011;18374;51.136;3.502;2023-02-28T05:09:17;12.60;;;6.50;;
31798;SDS011;18374;51.136;3.502;2023-02-28T05:11:45;10.77;;;6.72;;
31798;SDS011;18374;51.136;3.502;2023-02-28T05:14:13;12.30;;;6.93;;
31798;SDS011;18374;51.136;3.502;2023-02-28T05:16:41;9.98;;;5.82;;
31798;SDS011;18374;51.136;3.502;2023-02-28T05:19:09;15.57;;;7.43;;
31798;SDS011;18374;51.136;3.502;2023-02-28T05:21:38;12.10;;;6.82;;
31798;SDS011;18374;51.136;3.502;2023-02-28T05:24:22;13.13;;;6.90;;
31798;SDS011;18374;51.136;3.502;2023-02-28T05:26:51;13.15;;;6.65;;
31798;SDS011;18374;51.136;3.502;2023-02-28T05:29:20;14.27;;;7.10;;
31798;SDS011;18374;51.136;3.502;2023-02-28T05:31:48;12.20;;;7.20;;
31798;SDS011;18374;51.136;3.502;2023-02-28T05:34:17;14.35;;;6.60;;
31798;SDS011;18374;51.136;3.502;2023-02-28T05:36:45;13.75;;;6.10;;
31798;SDS011;18374;51.136;3.502;2023-02-28T05:39:12;11.20;;;6.40;;
31798;SDS011;18374;51.136;3.502;2023-02-28T05:41:41;10.95;;;6.65;;
31798;SDS011;18374;51.136;3.502;2023-02-28T05:44:10;14.60;;;7.50;;
31798;SDS011;18374;51.136;3.502;2023-02-28T05:46:38;11.43;;;6.82;;
31798;SDS011;18374;51.136;3.502;2023-02-28T05:49:05;14.73;;;6.72;;
31798;SDS011;18374;51.136;3.502;2023-02-28T05:51:33;10.73;;;6.30;;
31798;SDS011;18374;51.136;3.502;2023-02-28T05:54:03;13.23;;;6.95;;
31798;SDS011;18374;51.136;3.502;2023-02-28T05:56:31;11.40;;;6.85;;
31798;SDS011;18374;51.136;3.502;2023-02-28T05:59:01;10.30;;;6.72;;
31798;SDS011;18374;51.136;3.502;2023-02-28T06:01:36;13.02;;;6.88;;
31798;SDS011;18374;51.136;3.502;2023-02-28T06:04:08;13.73;;;7.47;;
31798;SDS011;18374;51.136;3.502;2023-02-28T06:06:48;14.30;;;6.30;;
31798;SDS011;18374;51.136;3.502;2023-02-28T06:09:17;11.15;;;6.68;;
31798;SDS011;18374;51.136;3.502;2023-02-28T06:11:46;11.88;;;6.95;;
31798;SDS011;18374;51.136;3.502;2023-02-28T06:14:14;12.52;;;6.22;;
31798;SDS011;18374;51.136;3.502;2023-02-28T06:16:44;10.48;;;6.45;;
31798;SDS011;18374;51.136;3.502;2023-02-28T06:19:12;13.23;;;6.80;;
31798;SDS011;18374;51.136;3.502;2023-02-28T06:21:40;13.45;;;6.25;;
31798;SDS011;18374;51.136;3.502;2023-02-28T06:24:08;12.00;;;6.85;;
31798;SDS011;18374;51.136;3.502;2023-02-28T06:26:37;11.57;;;6.25;;
31798;SDS011;18374;51.136;3.502;2023-02-28T06:29:05;12.00;;;6.90;;
31798;SDS011;18374;51.136;3.502;2023-02-28T06:31:32;12.70;;;6.88;;
31798;SDS011;18374;51.136;3.502;2023-02-28T06:34:00;13.30;;;7.30;;
31798;SDS011;18374;51.136;3.502;2023-02-28T06:36:28;12.98;;;6.80;;
31798;SDS011;18374;51.136;3.502;2023-02-28T06:38:56;13.68;;;7.22;;
31798;SDS011;18374;51.136;3.502;2023-02-28T06:41:25;15.45;;;7.60;;
31798;SDS011;18374;51.136;3.502;2023-02-28T06:43:54;13.10;;;7.18;;
31798;SDS011;18374;51.136;3.502;2023-02-28T06:46:22;12.00;;;6.95;;
31798;SDS011;18374;51.136;3.502;2023-02-28T06:48:50;16.88;;;7.25;;
31798;SDS011;18374;51.136;3.502;2023-02-28T06:51:19;12.13;;;7.28;;
31798;SDS011;18374;51.136;3.502;2023-02-28T06:53:49;15.07;;;7.55;;
31798;SDS011;18374;51.136;3.502;2023-02-28T06:56:18;12.68;;;7.20;;
31798;SDS011;18374;51.136;3.502;2023-02-28T06:58:48;11.55;;;6.50;;
31798;SDS011;18374;51.136;3.502;2023-02-28T07:01:18;11.05;;;7.13;;
31798;SDS011;18374;51.136;3.502;2023-02-28T07:03:47;12.85;;;7.43;;
31798;SDS011;18374;51.136;3.502;2023-02-28T07:06:19;14.30;;;6.88;;
31798;SDS011;18374;51.136;3.502;2023-02-28T07:08:50;13.30;;;6.75;;
31798;SDS011;18374;51.136;3.502;2023-02-28T07:11:20;11.00;;;6.95;;
31798;SDS011;18374;51.136;3.502;2023-02-28T07:13:56;15.68;;;7.13;;
31798;SDS011;18374;51.136;3.502;2023-02-28T07:16:24;13.40;;;6.97;;
31798;SDS011;18374;51.136;3.502;2023-02-28T07:18:53;14.88;;;6.88;;
31798;SDS011;18374;51.136;3.502;2023-02-28T07:21:21;12.52;;;5.93;;
31798;SDS011;18374;51.136;3.502;2023-02-28T07:23:49;10.20;;;6.10;;
31798;SDS011;18374;51.136;3.502;2023-02-28T07:26:17;9.85;;;5.05;;
31798;SDS011;18374;51.136;3.502;2023-02-28T07:28:47;8.07;;;5.07;;
31798;SDS011;18374;51.136;3.502;2023-02-28T07:31:16;8.13;;;4.38;;
31798;SDS011;18374;51.136;3.502;2023-02-28T07:33:45;10.85;;;4.80;;
31798;SDS011;18374;51.136;3.502;2023-02-28T07:36:14;7.25;;;4.45;;
31798;SDS011;18374;51.136;3.502;2023-02-28T07:38:46;5.15;;;3.75;;
31798;SDS011;18374;51.136;3.502;2023-02-28T07:41:20;7.78;;;4.57;;
31798;SDS011;18374;51.136;3.502;2023-02-28T07:43:52;9.43;;;4.32;;
31798;SDS011;18374;51.136;3.502;2023-02-28T07:46:22;7.60;;;4.30;;
31798;SDS011;18374;51.136;3.502;2023-02-28T07:48:50;7.75;;;3.78;;
31798;SDS011;18374;51.136;3.502;2023-02-28T07:51:19;40.00;;;6.47;;
31798;SDS011;18374;51.136;3.502;2023-02-28T07:53:47;5.72;;;4.00;;
31798;SDS011;18374;51.136;3.502;2023-02-28T07:56:15;6.40;;;3.47;;
31798;SDS011;18374;51.136;3.502;2023-02-28T07:58:43;6.50;;;3.10;;
31798;SDS011;18374;51.136;3.502;2023-02-28T08:01:11;7.80;;;3.50;;
31798;SDS011;18374;51.136;3.502;2023-02-28T08:03:40;6.32;;;3.25;;
31798;SDS011;18374;51.136;3.502;2023-02-28T08:06:09;9.18;;;3.55;;
31798;SDS011;18374;51.136;3.502;2023-02-28T08:08:45;5.25;;;2.70;;
31798;SDS011;18374;51.136;3.502;2023-02-28T08:11:13;4.28;;;2.50;;
31798;SDS011;18374;51.136;3.502;2023-02-28T08:13:43;7.28;;;2.53;;
31798;SDS011;18374;51.136;3.502;2023-02-28T08:16:12;4.28;;;2.55;;
31798;SDS011;18374;51.136;3.502;2023-02-28T08:18:44;5.80;;;2.38;;
31798;SDS011;18374;51.136;3.502;2023-02-28T08:21:12;3.85;;;2.35;;
31798;SDS011;18374;51.136;3.502;2023-02-28T08:23:40;4.25;;;2.35;;
31798;SDS011;18374;51.136;3.502;2023-02-28T08:26:07;5.60;;;2.40;;
31798;SDS011;18374;51.136;3.502;2023-02-28T08:28:35;4.43;;;2.47;;
31798;SDS011;18374;51.136;3.502;2023-02-28T08:31:06;3.25;;;2.03;;
31798;SDS011;18374;51.136;3.502;2023-02-28T08:33:40;7.15;;;2.15;;
31798;SDS011;18374;51.136;3.502;2023-02-28T08:36:08;4.65;;;2.30;;
31798;SDS011;18374;51.136;3.502;2023-02-28T08:38:36;3.25;;;1.95;;
31798;SDS011;18374;51.136;3.502;2023-02-28T08:41:06;5.68;;;2.22;;
31798;SDS011;18374;51.136;3.502;2023-02-28T08:43:37;4.75;;;1.98;;
31798;SDS011;18374;51.136;3.502;2023-02-28T08:46:06;4.53;;;2.00;;
31798;SDS011;18374;51.136;3.502;2023-02-28T08:48:35;3.85;;;1.70;;
31798;SDS011;18374;51.136;3.502;2023-02-28T08:51:11;2.80;;;1.73;;
31798;SDS011;18374;51.136;3.502;2023-02-28T08:53:48;5.05;;;2.10;;
31798;SDS011;18374;51.136;3.502;2023-02-28T08:56:16;3.88;;;1.90;;
31798;SDS011;18374;51.136;3.502;2023-02-28T08:58:45;4.80;;;1.83;;
31798;SDS011;18374;51.136;3.502;2023-02-28T09:01:19;7.38;;;1.90;;
31798;SDS011;18374;51.136;3.502;2023-02-28T09:03:50;2.45;;;1.63;;
31798;SDS011;18374;51.136;3.502;2023-02-28T09:06:19;9.27;;;2.28;;
31798;SDS011;18374;51.136;3.502;2023-02-28T09:08:50;5.25;;;2.00;;
31798;SDS011;18374;51.136;3.502;2023-02-28T09:11:19;5.28;;;2.30;;
31798;SDS011;18374;51.136;3.502;2023-02-28T09:13:46;3.47;;;2.25;;
31798;SDS011;18374;51.136;3.502;2023-02-28T09:16:14;3.45;;;2.00;;
31798;SDS011;18374;51.136;3.502;2023-02-28T09:18:43;5.30;;;2.30;;
31798;SDS011;18374;51.136;3.502;2023-02-28T09:21:12;9.13;;;2.42;;
31798;SDS011;18374;51.136;3.502;2023-02-28T09:23:46;4.30;;;2.28;;
31798;SDS011;18374;51.136;3.502;2023-02-28T09:26:17;2.97;;;1.83;;
31798;SDS011;18374;51.136;3.502;2023-02-28T09:28:49;3.10;;;2.17;;
31798;SDS011;18374;51.136;3.502;2023-02-28T09:31:18;3.38;;;2.33;;
31798;SDS011;18374;51.136;3.502;2023-02-28T09:33:50;4.53;;;2.20;;
31798;SDS011;18374;51.136;3.502;2023-02-28T09:36:20;3.38;;;2.58;;
31798;SDS011;18374;51.136;3.502;2023-02-28T09:39:00;3.55;;;2.50;;
31798;SDS011;18374;51.136;3.502;2023-02-28T09:41:28;3.42;;;2.22;;
31798;SDS011;18374;51.136;3.502;2023-02-28T09:44:09;3.63;;;2.42;;
31798;SDS011;18374;51.136;3.502;2023-02-28T09:49:41;8.30;;;2.70;;
31798;SDS011;18374;51.136;3.502;2023-02-28T09:52:17;4.82;;;2.65;;
31798;SDS011;18374;51.136;3.502;2023-02-28T10:00:19;5.05;;;2.63;;
31798;SDS011;18374;51.136;3.502;2023-02-28T10:05:52;3.67;;;2.28;;
31798;SDS011;18374;51.136;3.502;2023-02-28T10:12:12;7.18;;;2.90;;
31798;SDS011;18374;51.136;3.502;2023-02-28T10:14:44;4.38;;;2.65;;
31798;SDS011;18374;51.136;3.502;2023-02-28T10:17:16;7.07;;;2.83;;
31798;SDS011;18374;51.136;3.502;2023-02-28T10:22:52;5.93;;;2.80;;
31798;SDS011;18374;51.136;3.502;2023-02-28T10:25:27;9.57;;;2.80;;
31798;SDS011;18374;51.136;3.502;2023-02-28T10:27:59;4.63;;;2.83;;
31798;SDS011;18374;51.136;3.502;2023-02-28T10:30:36;7.55;;;2.67;;
31798;SDS011;18374;51.136;3.502;2023-02-28T10:33:23;5.45;;;2.78;;
31798;SDS011;18374;51.136;3.502;2023-02-28T10:36:01;5.57;;;2.80;;
31798;SDS011;18374;51.136;3.502;2023-02-28T10:38:34;4.90;;;2.75;;
31798;SDS011;18374;51.136;3.502;2023-02-28T10:41:05;5.82;;;3.00;;
31798;SDS011;18374;51.136;3.502;2023-02-28T10:44:13;7.32;;;2.78;;
31798;SDS011;18374;51.136;3.502;2023-02-28T10:46:48;9.65;;;3.20;;
31798;SDS011;18374;51.136;3.502;2023-02-28T10:49:22;6.53;;;3.35;;
31798;SDS011;18374;51.136;3.502;2023-02-28T10:51:59;7.28;;;3.65;;
31798;SDS011;18374;51.136;3.502;2023-02-28T10:54:32;5.60;;;3.53;;
31798;SDS011;18374;51.136;3.502;2023-02-28T10:59:44;8.90;;;4.03;;
31798;SDS011;18374;51.136;3.502;2023-02-28T11:02:29;5.40;;;2.95;;
31798;SDS011;18374;51.136;3.502;2023-02-28T11:10:44;4.20;;;2.70;;
31798;SDS011;18374;51.136;3.502;2023-02-28T11:13:19;6.90;;;2.78;;
31798;SDS011;18374;51.136;3.502;2023-02-28T11:15:59;7.35;;;2.78;;
31798;SDS011;18374;51.136;3.502;2023-02-28T11:18:36;5.95;;;2.95;;
31798;SDS011;18374;51.136;3.502;2023-02-28T11:21:08;4.13;;;2.60;;
31798;SDS011;18374;51.136;3.502;2023-02-28T11:23:44;2.63;;;2.33;;
31798;SDS011;18374;51.136;3.502;2023-02-28T11:26:12;4.57;;;2.30;;
31798;SDS011;18374;51.136;3.502;2023-02-28T11:28:40;5.03;;;2.70;;
31798;SDS011;18374;51.136;3.502;2023-02-28T11:33:48;6.68;;;2.80;;
31798;SDS011;18374;51.136;3.502;2023-02-28T11:38:56;4.38;;;2.60;;
31798;SDS011;18374;51.136;3.502;2023-02-28T11:53:53;3.55;;;2.33;;
31798;SDS011;18374;51.136;3.502;2023-02-28T11:59:19;4.95;;;1.98;;
31798;SDS011;18374;51.136;3.502;2023-02-28T12:14:03;3.28;;;2.00;;
31798;SDS011;18374;51.136;3.502;2023-02-28T12:23:18;10.05;;;2.30;;
31798;SDS011;18374;51.136;3.502;2023-02-28T12:28:31;4.22;;;2.38;;
31798;SDS011;18374;51.136;3.502;2023-02-28T12:31:09;2.75;;;2.20;;
31798;SDS011;18374;51.136;3.502;2023-02-28T12:33:56;3.25;;;2.35;;
31798;SDS011;18374;51.136;3.502;2023-02-28T12:36:28;3.08;;;1.98;;
31798;SDS011;18374;51.136;3.502;2023-02-28T12:38:58;3.05;;;2.20;;
31798;SDS011;18374;51.136;3.502;2023-02-28T12:41:45;4.10;;;2.20;;
31798;SDS011;18374;51.136;3.502;2023-02-28T12:44:23;5.75;;;2.08;;
31798;SDS011;18374;51.136;3.502;2023-02-28T12:47:00;3.35;;;2.38;;
31798;SDS011;18374;51.136;3.502;2023-02-28T12:52:38;5.85;;;2.30;;
31798;SDS011;18374;51.136;3.502;2023-02-28T12:58:01;4.93;;;2.35;;
31798;SDS011;18374;51.136;3.502;2023-02-28T13:06:59;2.22;;;1.85;;
31798;SDS011;18374;51.136;3.502;2023-02-28T13:09:55;2.40;;;1.60;;
31798;SDS011;18374;51.136;3.502;2023-02-28T13:12:25;4.57;;;1.70;;
31798;SDS011;18374;51.136;3.502;2023-02-28T13:15:02;4.47;;;1.88;;
31798;SDS011;18374;51.136;3.502;2023-02-28T13:17:39;1.70;;;1.60;;
31798;SDS011;18374;51.136;3.502;2023-02-28T13:20:18;3.28;;;1.75;;
31798;SDS011;18374;51.136;3.502;2023-02-28T13:22:51;2.30;;;1.92;;
31798;SDS011;18374;51.136;3.502;2023-02-28T13:27:49;4.82;;;2.00;;
31798;SDS011;18374;51.136;3.502;2023-02-28T13:33:24;4.53;;;2.17;;
31798;SDS011;18374;51.136;3.502;2023-02-28T13:36:07;3.28;;;1.77;;
31798;SDS011;18374;51.136;3.502;2023-02-28T13:38:43;2.05;;;1.60;;
31798;SDS011;18374;51.136;3.502;2023-02-28T13:44:12;3.85;;;1.80;;
31798;SDS011;18374;51.136;3.502;2023-02-28T13:51:51;4.13;;;1.85;;
31798;SDS011;18374;51.136;3.502;2023-02-28T14:07:03;1.63;;;1.45;;
31798;SDS011;18374;51.136;3.502;2023-02-28T14:09:35;1.75;;;1.40;;
31798;SDS011;18374;51.136;3.502;2023-02-28T14:16:07;2.97;;;1.67;;
31798;SDS011;18374;51.136;3.502;2023-02-28T14:18:18;2.47;;;1.70;;
31798;SDS011;18374;51.136;3.502;2023-02-28T14:20:47;2.58;;;1.42;;
31798;SDS011;18374;51.136;3.502;2023-02-28T14:30:02;1.63;;;1.48;;
31798;SDS011;18374;51.136;3.502;2023-02-28T14:32:32;4.38;;;1.60;;
31798;SDS011;18374;51.136;3.502;2023-02-28T14:38:28;3.22;;;1.90;;
31798;SDS011;18374;51.136;3.502;2023-02-28T14:41:21;3.67;;;2.03;;
31798;SDS011;18374;51.136;3.502;2023-02-28T14:43:57;1.92;;;1.73;;
31798;SDS011;18374;51.136;3.502;2023-02-28T14:46:34;2.65;;;1.70;;
31798;SDS011;18374;51.136;3.502;2023-02-28T14:49:06;2.38;;;1.90;;
31798;SDS011;18374;51.136;3.502;2023-02-28T14:52:07;6.97;;;1.73;;
31798;SDS011;18374;51.136;3.502;2023-02-28T14:55:12;2.35;;;1.80;;
31798;SDS011;18374;51.136;3.502;2023-02-28T14:57:54;3.22;;;2.05;;
31798;SDS011;18374;51.136;3.502;2023-02-28T15:00:27;4.00;;;1.70;;
31798;SDS011;18374;51.136;3.502;2023-02-28T15:02:58;2.15;;;1.90;;
31798;SDS011;18374;51.136;3.502;2023-02-28T15:05:29;7.75;;;2.17;;
31798;SDS011;18374;51.136;3.502;2023-02-28T15:10:58;5.82;;;1.95;;
31798;SDS011;18374;51.136;3.502;2023-02-28T15:19:07;4.93;;;2.17;;
31798;SDS011;18374;51.136;3.502;2023-02-28T15:21:48;4.63;;;2.40;;
31798;SDS011;18374;51.136;3.502;2023-02-28T15:27:12;3.05;;;2.17;;
31798;SDS011;18374;51.136;3.502;2023-02-28T15:29:55;2.72;;;2.20;;
31798;SDS011;18374;51.136;3.502;2023-02-28T15:32:27;3.22;;;2.03;;
31798;SDS011;18374;51.136;3.502;2023-02-28T15:34:59;3.15;;;2.10;;
31798;SDS011;18374;51.136;3.502;2023-02-28T15:38:03;4.95;;;2.60;;
31798;SDS011;18374;51.136;3.502;2023-02-28T15:40:45;4.45;;;2.20;;
31798;SDS011;18374;51.136;3.502;2023-02-28T15:48:29;3.67;;;2.20;;
31798;SDS011;18374;51.136;3.502;2023-02-28T15:51:08;4.45;;;2.25;;
31798;SDS011;18374;51.136;3.502;2023-02-28T15:53:47;4.38;;;2.30;;
31798;SDS011;18374;51.136;3.502;2023-02-28T15:58:54;3.47;;;2.22;;
31798;SDS011;18374;51.136;3.502;2023-02-28T16:01:39;3.85;;;2.03;;
31798;SDS011;18374;51.136;3.502;2023-02-28T16:04:17;2.80;;;2.17;;
31798;SDS011;18374;51.136;3.502;2023-02-28T16:07:00;5.10;;;2.20;;
31798;SDS011;18374;51.136;3.502;2023-02-28T16:09:32;3.92;;;2.42;;
31798;SDS011;18374;51.136;3.502;2023-02-28T16:12:01;4.25;;;2.20;;
31798;SDS011;18374;51.136;3.502;2023-02-28T16:14:30;3.67;;;2.30;;
31798;SDS011;18374;51.136;3.502;2023-02-28T16:17:03;3.78;;;2.33;;
31798;SDS011;18374;51.136;3.502;2023-02-28T16:19:35;3.35;;;2.30;;
31798;SDS011;18374;51.136;3.502;2023-02-28T16:22:03;2.50;;;2.00;;
31798;SDS011;18374;51.136;3.502;2023-02-28T16:24:31;3.22;;;2.47;;
31798;SDS011;18374;51.136;3.502;2023-02-28T16:26:58;4.07;;;2.55;;
31798;SDS011;18374;51.136;3.502;2023-02-28T16:29:28;2.80;;;2.40;;
31798;SDS011;18374;51.136;3.502;2023-02-28T16:32:00;5.15;;;2.50;;
31798;SDS011;18374;51.136;3.502;2023-02-28T16:34:29;4.55;;;2.42;;
31798;SDS011;18374;51.136;3.502;2023-02-28T16:36:58;8.05;;;2.83;;
31798;SDS011;18374;51.136;3.502;2023-02-28T16:39:25;4.22;;;2.80;;
31798;SDS011;18374;51.136;3.502;2023-02-28T16:41:53;2.72;;;2.17;;
31798;SDS011;18374;51.136;3.502;2023-02-28T16:46:59;4.20;;;2.28;;
31798;SDS011;18374;51.136;3.502;2023-02-28T16:49:29;5.78;;;2.20;;
31798;SDS011;18374;51.136;3.502;2023-02-28T16:51:57;3.88;;;2.17;;
31798;SDS011;18374;51.136;3.502;2023-02-28T16:54:25;3.35;;;2.45;;
31798;SDS011;18374;51.136;3.502;2023-02-28T16:56:53;4.85;;;2.97;;
31798;SDS011;18374;51.136;3.502;2023-02-28T16:59:22;6.47;;;2.55;;
31798;SDS011;18374;51.136;3.502;2023-02-28T17:01:51;3.38;;;2.08;;
31798;SDS011;18374;51.136;3.502;2023-02-28T17:04:21;2.90;;;2.35;;
31798;SDS011;18374;51.136;3.502;2023-02-28T17:06:48;4.88;;;2.80;;
31798;SDS011;18374;51.136;3.502;2023-02-28T17:09:18;3.22;;;2.53;;
31798;SDS011;18374;51.136;3.502;2023-02-28T17:11:56;3.85;;;2.47;;
31798;SDS011;18374;51.136;3.502;2023-02-28T17:14:24;4.05;;;2.90;;
31798;SDS011;18374;51.136;3.502;2023-02-28T17:16:52;5.47;;;2.63;;
31798;SDS011;18374;51.136;3.502;2023-02-28T17:19:20;2.33;;;2.13;;
31798;SDS011;18374;51.136;3.502;2023-02-28T17:21:47;3.85;;;2.63;;
31798;SDS011;18374;51.136;3.502;2023-02-28T17:24:15;3.75;;;2.50;;
31798;SDS011;18374;51.136;3.502;2023-02-28T17:26:56;5.38;;;3.08;;
31798;SDS011;18374;51.136;3.502;2023-02-28T17:29:23;5.43;;;3.20;;
31798;SDS011;18374;51.136;3.502;2023-02-28T17:31:51;4.35;;;3.05;;
31798;SDS011;18374;51.136;3.502;2023-02-28T17:34:19;3.08;;;2.70;;
31798;SDS011;18374;51.136;3.502;2023-02-28T17:36:48;4.60;;;2.75;;
31798;SDS011;18374;51.136;3.502;2023-02-28T17:39:18;4.35;;;2.70;;
31798;SDS011;18374;51.136;3.502;2023-02-28T17:41:54;4.35;;;2.53;;
31798;SDS011;18374;51.136;3.502;2023-02-28T17:44:23;5.85;;;3.30;;
31798;SDS011;18374;51.136;3.502;2023-02-28T17:46:52;6.95;;;2.83;;
31798;SDS011;18374;51.136;3.502;2023-02-28T17:49:21;3.42;;;2.50;;
31798;SDS011;18374;51.136;3.502;2023-02-28T17:51:49;3.13;;;2.40;;
31798;SDS011;18374;51.136;3.502;2023-02-28T17:54:17;3.65;;;2.38;;
31798;SDS011;18374;51.136;3.502;2023-02-28T17:56:45;4.03;;;2.53;;
31798;SDS011;18374;51.136;3.502;2023-02-28T17:59:13;4.45;;;2.35;;
31798;SDS011;18374;51.136;3.502;2023-02-28T18:01:41;4.18;;;2.88;;
31798;SDS011;18374;51.136;3.502;2023-02-28T18:04:09;2.90;;;2.50;;
31798;SDS011;18374;51.136;3.502;2023-02-28T18:06:37;8.25;;;2.72;;
31798;SDS011;18374;51.136;3.502;2023-02-28T18:09:15;4.38;;;2.72;;
31798;SDS011;18374;51.136;3.502;2023-02-28T18:11:49;3.90;;;2.83;;
31798;SDS011;18374;51.136;3.502;2023-02-28T18:14:19;5.80;;;2.90;;
31798;SDS011;18374;51.136;3.502;2023-02-28T18:16:52;5.50;;;2.97;;
31798;SDS011;18374;51.136;3.502;2023-02-28T18:19:21;3.95;;;2.80;;